createdAt,value
2018-09-22T00:00:01.146Z,0.00
2018-09-22T00:01:14.805Z,0.00
2018-09-22T00:02:21.783Z,0.00
2018-09-22T00:03:28.377Z,0.00
2018-09-22T00:08:05.198Z,0.00
2018-09-22T00:10:46.203Z,0.00
2018-09-22T00:11:52.376Z,0.00
2018-09-22T00:12:57.118Z,0.00
2018-09-22T00:14:01.771Z,0.00
2018-09-22T00:15:17.662Z,0.00
2018-09-22T00:16:30.800Z,0.00
2018-09-22T00:17:35.294Z,0.00
2018-09-22T00:18:42.567Z,0.75
2018-09-22T00:19:47.807Z,0.25
2018-09-22T00:20:52.437Z,0.00
2018-09-22T00:21:56.814Z,1.00
2018-09-22T00:22:59.662Z,0.00
2018-09-22T00:24:02.768Z,0.00
2018-09-22T00:25:06.616Z,0.00
2018-09-22T00:26:09.836Z,0.00
2018-09-22T00:27:24.175Z,0.00
2018-09-22T00:28:32.825Z,0.00
2018-09-22T00:29:37.620Z,0.50
2018-09-22T00:30:40.595Z,0.00
2018-09-22T00:31:44.440Z,0.00
2018-09-22T00:32:48.145Z,0.00
2018-09-22T00:33:52.441Z,0.00
2018-09-22T00:34:56.106Z,0.00
2018-09-22T00:35:59.180Z,0.00
2018-09-22T00:40:45.071Z,0.00
2018-09-22T00:41:49.883Z,0.00
2018-09-22T00:42:53.663Z,0.00
2018-09-22T00:44:24.600Z,0.00
2018-09-22T00:45:27.961Z,1.00
2018-09-22T00:46:40.840Z,0.00
2018-09-22T00:47:52.634Z,0.00
2018-09-22T00:48:59.409Z,0.00
2018-09-22T00:50:08.735Z,0.00
2018-09-22T00:51:13.546Z,0.00
2018-09-22T00:52:18.168Z,0.00
2018-09-22T00:57:04.115Z,0.50
2018-09-22T00:59:32.236Z,0.00
2018-09-22T01:00:47.043Z,0.00
2018-09-22T01:01:54.029Z,1.00
2018-09-22T01:02:58.653Z,0.00
2018-09-22T01:04:12.876Z,0.00
2018-09-22T01:05:22.156Z,0.00
2018-09-22T01:07:57.471Z,0.00
2018-09-22T01:09:02.159Z,0.00
2018-09-22T01:10:07.073Z,0.75
2018-09-22T01:11:12.473Z,0.00
2018-09-22T01:13:31.667Z,0.00
2018-09-22T01:14:51.760Z,0.00
2018-09-22T01:20:01.018Z,0.00
2018-09-22T01:21:05.290Z,0.00
2018-09-22T01:22:11.385Z,0.00
2018-09-22T01:23:15.287Z,0.00
2018-09-22T01:25:49.185Z,0.00
2018-09-22T01:26:53.143Z,0.00
2018-09-22T01:27:58.253Z,0.00
2018-09-22T01:30:21.296Z,0.00
2018-09-22T01:31:32.849Z,0.00
2018-09-22T01:32:38.493Z,0.00
2018-09-22T01:33:42.323Z,1.00
2018-09-22T01:34:45.173Z,0.00
2018-09-22T01:35:48.216Z,0.00
2018-09-22T01:36:51.400Z,0.00
2018-09-22T01:37:54.319Z,0.00
2018-09-22T01:38:57.835Z,0.00
2018-09-22T01:40:06.840Z,0.75
2018-09-22T01:41:19.299Z,0.00
2018-09-22T01:42:22.979Z,0.25
2018-09-22T01:43:30.066Z,0.00
2018-09-22T01:44:34.563Z,1.00
2018-09-22T01:45:41.961Z,1.00
2018-09-22T01:46:44.819Z,0.00
2018-09-22T01:47:48.158Z,0.00
2018-09-22T01:48:52.097Z,0.00
2018-09-22T01:49:55.751Z,1.00
2018-09-22T01:50:58.931Z,0.00
2018-09-22T01:52:04.267Z,0.00
2018-09-22T01:53:07.737Z,0.00
2018-09-22T01:54:10.900Z,1.00
2018-09-22T01:55:14.140Z,1.00
2018-09-22T01:56:19.854Z,0.00
2018-09-22T01:57:23.303Z,1.00
2018-09-22T01:58:26.347Z,1.00
2018-09-22T01:59:29.280Z,1.00
2018-09-22T02:00:39.476Z,0.50
2018-09-22T02:01:42.620Z,1.00
2018-09-22T02:02:46.199Z,2.50
2018-09-22T02:03:49.087Z,0.00
2018-09-22T02:04:52.482Z,1.00
2018-09-22T02:07:20.255Z,1.00
2018-09-22T02:08:25.105Z,0.00
2018-09-22T02:09:28.619Z,0.00
2018-09-22T02:10:39.221Z,1.00
2018-09-22T02:11:44.424Z,0.00
2018-09-22T02:12:53.294Z,0.00
2018-09-22T02:13:58.086Z,0.00
2018-09-22T02:15:06.020Z,0.00
2018-09-22T02:16:08.923Z,1.00
2018-09-22T02:17:12.616Z,0.00
2018-09-22T02:18:15.543Z,0.00
2018-09-22T02:19:19.433Z,0.00
2018-09-22T02:20:24.677Z,0.00
2018-09-22T02:21:27.513Z,0.00
2018-09-22T02:22:34.749Z,0.00
2018-09-22T02:23:38.196Z,0.00
2018-09-22T02:24:43.692Z,0.25
2018-09-22T02:25:47.018Z,0.00
2018-09-22T02:26:52.459Z,0.00
2018-09-22T02:27:56.506Z,0.50
2018-09-22T02:29:00.365Z,0.00
2018-09-22T02:30:05.028Z,0.00
2018-09-22T02:31:08.044Z,0.00
2018-09-22T02:32:13.396Z,0.00
2018-09-22T02:33:16.675Z,0.25
2018-09-22T02:34:21.329Z,0.00
2018-09-22T02:35:25.179Z,0.00
2018-09-22T02:36:31.926Z,0.00
2018-09-22T02:38:49.073Z,0.00
2018-09-22T02:39:53.311Z,0.00
2018-09-22T02:40:57.521Z,0.00
2018-09-22T02:42:04.112Z,0.00
2018-09-22T02:43:07.079Z,0.00
2018-09-22T02:44:14.106Z,0.50
2018-09-22T02:45:16.993Z,0.25
2018-09-22T02:46:23.523Z,0.25
2018-09-22T02:47:26.368Z,0.00
2018-09-22T02:48:29.430Z,1.00
2018-09-22T02:49:34.569Z,0.00
2018-09-22T02:50:37.735Z,0.00
2018-09-22T02:51:41.789Z,0.25
2018-09-22T02:52:44.706Z,0.00
2018-09-22T02:53:47.821Z,0.00
2018-09-22T02:54:51.791Z,0.00
2018-09-22T02:55:55.376Z,0.75
2018-09-22T02:56:59.972Z,0.00
2018-09-22T02:58:04.749Z,0.00
2018-09-22T02:59:07.950Z,0.00
2018-09-22T03:00:13.671Z,0.00
2018-09-22T03:01:17.310Z,1.00
2018-09-22T03:02:23.321Z,0.00
2018-09-22T03:03:26.598Z,0.00
2018-09-22T03:04:30.654Z,0.00
2018-09-22T03:05:34.974Z,0.00
2018-09-22T03:06:37.977Z,0.00
2018-09-22T03:07:43.028Z,0.00
2018-09-22T03:08:45.998Z,0.00
2018-09-22T03:09:49.239Z,0.00
2018-09-22T03:10:52.147Z,0.00
2018-09-22T03:11:55.079Z,0.25
2018-09-22T03:12:58.053Z,0.25
2018-09-22T03:14:00.861Z,0.00
2018-09-22T03:15:05.253Z,0.00
2018-09-22T03:16:09.448Z,0.00
2018-09-22T03:17:12.317Z,0.00
2018-09-22T03:18:15.167Z,0.50
2018-09-22T03:19:18.008Z,0.00
2018-09-22T03:20:21.765Z,0.00
2018-09-22T03:21:24.653Z,0.00
2018-09-22T03:22:27.830Z,0.00
2018-09-22T03:23:30.661Z,0.00
2018-09-22T03:24:33.727Z,0.00
2018-09-22T03:25:36.673Z,0.00
2018-09-22T03:26:39.886Z,0.00
2018-09-22T03:27:43.319Z,0.00
2018-09-22T03:28:46.185Z,0.00
2018-09-22T03:29:49.114Z,0.00
2018-09-22T03:30:52.112Z,0.00
2018-09-22T03:31:57.921Z,0.00
2018-09-22T03:33:01.581Z,0.00
2018-09-22T03:34:09.220Z,0.75
2018-09-22T03:35:12.150Z,0.00
2018-09-22T03:36:15.144Z,0.00
2018-09-22T03:37:18.012Z,0.00
2018-09-22T03:38:20.933Z,0.00
2018-09-22T03:39:23.825Z,0.00
2018-09-22T03:40:27.110Z,1.00
2018-09-22T03:41:30.038Z,0.00
2018-09-22T03:42:32.914Z,0.75
2018-09-22T03:43:35.810Z,0.00
2018-09-22T03:44:38.866Z,0.75
2018-09-22T03:45:41.757Z,0.00
2018-09-22T03:46:45.998Z,0.00
2018-09-22T03:47:48.820Z,0.25
2018-09-22T03:48:51.704Z,0.75
2018-09-22T03:49:54.525Z,0.00
2018-09-22T03:50:57.479Z,0.75
2018-09-22T03:52:00.365Z,0.50
2018-09-22T03:53:03.647Z,0.00
2018-09-22T03:54:06.662Z,0.00
2018-09-22T03:55:09.541Z,0.25
2018-09-22T03:56:12.404Z,0.75
2018-09-22T03:57:15.370Z,0.00
2018-09-22T03:58:18.410Z,1.00
2018-09-22T03:59:21.642Z,0.00
2018-09-22T04:00:25.383Z,0.25
2018-09-22T04:01:28.658Z,0.00
2018-09-22T04:02:32.271Z,0.00
2018-09-22T04:03:35.130Z,0.50
2018-09-22T04:04:37.958Z,0.00
2018-09-22T04:05:41.126Z,0.50
2018-09-22T04:06:43.949Z,0.25
2018-09-22T04:07:46.787Z,1.00
2018-09-22T04:08:49.674Z,0.00
2018-09-22T04:09:52.549Z,0.00
2018-09-22T04:10:55.713Z,0.00
2018-09-22T04:12:00.432Z,0.00
2018-09-22T04:13:03.572Z,0.25
2018-09-22T04:14:07.571Z,0.00
2018-09-22T04:15:10.424Z,0.00
2018-09-22T04:16:13.263Z,0.00
2018-09-22T04:17:16.155Z,0.25
2018-09-22T04:18:19.306Z,0.00
2018-09-22T04:19:22.196Z,0.00
2018-09-22T04:20:25.074Z,1.00
2018-09-22T04:21:28.002Z,0.00
2018-09-22T04:22:30.870Z,0.00
2018-09-22T04:23:33.700Z,0.25
2018-09-22T04:24:37.519Z,0.00
2018-09-22T04:25:40.499Z,0.00
2018-09-22T04:26:43.374Z,0.00
2018-09-22T04:27:46.246Z,0.25
2018-09-22T04:28:49.140Z,0.00
2018-09-22T04:29:52.070Z,0.00
2018-09-22T04:30:55.283Z,0.00
2018-09-22T04:31:58.191Z,0.00
2018-09-22T04:33:01.188Z,0.00
2018-09-22T04:34:04.134Z,0.25
2018-09-22T04:35:07.006Z,0.25
2018-09-22T04:36:09.850Z,0.50
2018-09-22T04:37:13.912Z,0.00
2018-09-22T04:38:17.004Z,0.75
2018-09-22T04:39:19.997Z,0.00
2018-09-22T04:40:23.983Z,0.00
2018-09-22T04:41:27.790Z,0.25
2018-09-22T04:42:30.625Z,1.00
2018-09-22T04:43:33.905Z,0.50
2018-09-22T04:44:36.775Z,0.00
2018-09-22T04:45:39.689Z,0.50
2018-09-22T04:46:42.838Z,0.00
2018-09-22T04:47:46.237Z,0.00
2018-09-22T04:48:49.099Z,0.00
2018-09-22T04:49:52.320Z,0.00
2018-09-22T04:50:55.275Z,0.00
2018-09-22T04:52:02.634Z,0.25
2018-09-22T04:53:07.398Z,1.00
2018-09-22T04:54:10.275Z,0.00
2018-09-22T04:55:13.228Z,0.00
2018-09-22T04:56:17.055Z,0.25
2018-09-22T04:57:20.010Z,0.50
2018-09-22T04:58:22.946Z,0.00
2018-09-22T04:59:25.917Z,0.00
2018-09-22T05:00:29.236Z,0.00
2018-09-22T05:01:32.059Z,0.00
2018-09-22T05:02:36.509Z,0.00
2018-09-22T05:03:39.483Z,0.50
2018-09-22T05:04:42.387Z,0.00
2018-09-22T05:05:45.261Z,0.00
2018-09-22T05:06:49.728Z,0.00
2018-09-22T05:07:52.649Z,0.00
2018-09-22T05:08:56.324Z,1.00
2018-09-22T05:10:00.197Z,0.50
2018-09-22T05:11:04.482Z,0.00
2018-09-22T05:12:07.649Z,0.75
2018-09-22T05:13:10.779Z,0.00
2018-09-22T05:14:14.555Z,0.00
2018-09-22T05:15:18.513Z,0.00
2018-09-22T05:16:22.185Z,0.00
2018-09-22T05:17:25.056Z,0.50
2018-09-22T05:18:28.173Z,1.00
2018-09-22T05:19:31.140Z,0.75
2018-09-22T05:20:34.290Z,1.00
2018-09-22T05:21:37.626Z,0.00
2018-09-22T05:22:40.767Z,0.25
2018-09-22T05:23:44.722Z,0.00
2018-09-22T05:24:50.381Z,1.00
2018-09-22T05:25:53.556Z,1.00
2018-09-22T05:26:56.909Z,0.50
2018-09-22T05:28:01.085Z,1.50
2018-09-22T05:29:07.761Z,0.25
2018-09-22T05:30:11.734Z,0.50
2018-09-22T05:44:26.893Z,0.25
2018-09-22T05:45:30.312Z,0.00
2018-09-22T05:46:33.168Z,1.00
2018-09-22T05:47:36.034Z,1.00
2018-09-22T05:48:38.894Z,0.00
2018-09-22T05:49:42.402Z,0.00
2018-09-22T05:52:15.744Z,0.00
2018-09-22T05:53:19.677Z,0.00
2018-09-22T05:54:23.185Z,1.00
2018-09-22T05:55:26.495Z,0.00
2018-09-22T05:56:29.927Z,0.00
2018-09-22T05:58:45.433Z,1.00
2018-09-22T05:59:48.373Z,0.50
2018-09-22T06:00:51.367Z,0.75
2018-09-22T06:01:54.370Z,1.00
2018-09-22T06:02:57.957Z,1.00
2018-09-22T06:04:00.986Z,0.25
2018-09-22T06:05:04.603Z,0.00
2018-09-22T06:06:08.829Z,0.25
2018-09-22T06:07:12.205Z,1.00
2018-09-22T06:08:15.994Z,0.00
2018-09-22T06:09:20.424Z,0.50
2018-09-22T06:10:28.433Z,0.50
2018-09-22T06:11:31.627Z,0.25
2018-09-22T06:12:35.313Z,1.00
2018-09-22T06:13:38.258Z,1.00
2018-09-22T06:14:41.380Z,0.00
2018-09-22T06:15:56.100Z,1.00
2018-09-22T06:16:59.482Z,0.00
2018-09-22T06:18:04.345Z,0.75
2018-09-22T06:19:07.745Z,0.00
2018-09-22T06:20:10.765Z,0.25
2018-09-22T06:21:13.707Z,0.00
2018-09-22T06:22:17.004Z,0.00
2018-09-22T06:23:20.009Z,0.00
2018-09-22T06:24:23.015Z,0.00
2018-09-22T06:25:25.903Z,2.50
2018-09-22T06:26:30.113Z,0.00
2018-09-22T06:27:33.985Z,0.00
2018-09-22T06:28:37.377Z,0.50
2018-09-22T06:29:41.608Z,1.00
2018-09-22T06:30:45.252Z,0.50
2018-09-22T06:31:48.244Z,0.25
2018-09-22T06:33:00.800Z,0.25
2018-09-22T06:34:07.466Z,0.00
2018-09-22T06:35:14.912Z,1.00
2018-09-22T06:36:24.211Z,1.50
2018-09-22T06:37:31.211Z,0.00
2018-09-22T06:38:35.100Z,0.00
2018-09-22T06:39:38.712Z,0.00
2018-09-22T06:41:55.618Z,0.50
2018-09-22T06:42:59.102Z,0.50
2018-09-22T06:44:04.745Z,0.25
2018-09-22T06:45:07.856Z,0.00
2018-09-22T06:46:11.315Z,0.75
2018-09-22T06:47:17.334Z,0.00
2018-09-22T06:48:20.285Z,0.00
2018-09-22T06:49:23.158Z,0.50
2018-09-22T06:50:26.715Z,0.00
2018-09-22T06:51:29.885Z,0.75
2018-09-22T06:52:32.800Z,1.00
2018-09-22T06:53:38.641Z,1.00
2018-09-22T06:54:48.219Z,1.00
2018-09-22T06:55:51.221Z,1.00
2018-09-22T06:56:54.065Z,0.25
2018-09-22T06:57:57.388Z,1.00
2018-09-22T06:59:02.683Z,0.00
2018-09-22T07:04:03.626Z,0.25
2018-09-22T07:09:54.706Z,0.00
2018-09-22T07:17:02.109Z,0.25
2018-09-22T07:18:14.259Z,0.00
2018-09-22T07:19:17.478Z,1.00
2018-09-22T07:20:22.353Z,0.00
2018-09-22T07:21:31.432Z,0.00
2018-09-22T07:23:56.346Z,1.00
2018-09-22T07:25:01.789Z,1.00
2018-09-22T07:27:30.729Z,1.00
2018-09-22T07:28:35.294Z,0.00
2018-09-22T07:29:45.624Z,1.00
2018-09-22T07:32:14.538Z,1.00
2018-09-22T07:33:19.605Z,0.00
2018-09-22T07:35:54.130Z,0.00
2018-09-22T07:37:03.265Z,0.00
2018-09-22T07:39:19.864Z,0.00
2018-09-22T07:40:22.803Z,1.00
2018-09-22T07:41:26.158Z,0.00
2018-09-22T07:42:34.297Z,0.00
2018-09-22T07:43:42.130Z,0.25
2018-09-22T07:46:12.604Z,0.75
2018-09-22T07:48:42.353Z,0.75
2018-09-22T07:49:47.240Z,1.00
2018-09-22T07:50:57.480Z,1.00
2018-09-22T07:52:05.885Z,1.00
2018-09-22T07:53:10.779Z,1.00
2018-09-22T07:54:26.115Z,0.00
2018-09-22T07:55:29.638Z,1.00
2018-09-22T07:56:33.290Z,0.00
2018-09-22T07:57:37.338Z,0.50
2018-09-22T07:58:40.717Z,0.75
2018-09-22T07:59:44.015Z,0.00
2018-09-22T08:00:48.438Z,1.00
2018-09-22T08:01:51.675Z,1.00
2018-09-22T08:03:04.416Z,1.00
2018-09-22T08:08:20.918Z,0.50
2018-09-22T08:09:24.985Z,0.00
2018-09-22T08:10:48.464Z,0.75
2018-09-22T08:12:10.349Z,0.00
2018-09-22T08:13:19.416Z,0.00
2018-09-22T08:14:33.569Z,1.00
2018-09-22T08:15:36.800Z,1.00
2018-09-22T08:24:28.809Z,0.00
2018-09-22T08:26:49.862Z,0.00
2018-09-22T08:27:52.933Z,0.00
2018-09-22T08:28:55.936Z,0.00
2018-09-22T08:29:59.160Z,0.00
2018-09-22T08:31:02.300Z,1.00
2018-09-22T08:38:34.578Z,1.00
2018-09-22T08:39:38.470Z,0.00
2018-09-22T08:40:41.602Z,1.00
2018-09-22T08:41:44.824Z,1.00
2018-09-22T08:42:50.635Z,1.00
2018-09-22T08:43:54.965Z,0.00
2018-09-22T08:44:59.455Z,1.00
2018-09-22T08:46:04.094Z,1.00
2018-09-22T08:47:17.984Z,0.00
2018-09-22T08:48:24.643Z,0.75
2018-09-22T08:49:29.797Z,0.50
2018-09-22T08:50:36.348Z,1.00
2018-09-22T08:51:41.396Z,0.25
2018-09-22T08:52:45.391Z,1.00
2018-09-22T08:53:48.392Z,1.00
2018-09-22T08:54:54.999Z,0.00
2018-09-22T08:57:19.989Z,0.00
2018-09-22T09:02:18.662Z,0.75
2018-09-22T09:03:21.900Z,0.75
2018-09-22T09:04:33.457Z,0.00
2018-09-22T09:05:44.725Z,1.00
2018-09-22T09:06:48.507Z,0.00
2018-09-22T09:08:23.824Z,1.00
2018-09-22T09:09:28.069Z,1.00
2018-09-22T09:10:33.088Z,1.00
2018-09-22T09:11:36.814Z,1.00
2018-09-22T09:12:42.291Z,1.00
2018-09-22T09:13:49.543Z,0.00
2018-09-22T09:14:55.717Z,1.00
2018-09-22T09:15:59.661Z,1.00
2018-09-22T09:17:03.319Z,1.00
2018-09-22T09:18:07.131Z,0.50
2018-09-22T09:19:13.851Z,1.00
2018-09-22T09:20:17.367Z,0.25
2018-09-22T09:21:27.878Z,0.25
2018-09-22T09:22:30.823Z,0.00
2018-09-22T09:23:37.421Z,1.00
2018-09-22T09:24:40.543Z,0.00
2018-09-22T09:25:43.984Z,1.00
2018-09-22T09:26:48.252Z,1.00
2018-09-22T09:27:51.960Z,1.00
2018-09-22T09:28:55.384Z,0.25
2018-09-22T09:29:59.145Z,0.00
2018-09-22T09:31:03.727Z,0.00
2018-09-22T09:32:16.466Z,1.00
2018-09-22T09:33:22.098Z,0.00
2018-09-22T09:34:30.911Z,0.25
2018-09-22T09:35:34.443Z,1.00
2018-09-22T09:36:38.503Z,0.25
2018-09-22T09:37:41.748Z,0.25
2018-09-22T09:38:46.255Z,1.00
2018-09-22T09:39:49.319Z,0.75
2018-09-22T09:40:52.646Z,0.00
2018-09-22T09:41:58.097Z,1.00
2018-09-22T09:43:01.636Z,0.25
2018-09-22T09:44:27.593Z,0.00
2018-09-22T09:45:46.703Z,0.25
2018-09-22T09:46:50.780Z,1.00
2018-09-22T09:47:53.870Z,0.00
2018-09-22T09:49:06.105Z,1.00
2018-09-22T09:50:21.823Z,1.00
2018-09-22T09:51:27.818Z,1.00
2018-09-22T09:52:34.832Z,1.00
2018-09-22T09:53:38.686Z,1.00
2018-09-22T09:54:42.420Z,1.00
2018-09-22T09:55:46.109Z,1.75
2018-09-22T09:56:54.291Z,0.50
2018-09-22T09:59:22.256Z,1.00
2018-09-22T10:00:44.859Z,1.25
2018-09-22T10:01:52.520Z,0.25
2018-09-22T10:02:57.794Z,0.50
2018-09-22T10:04:18.993Z,1.00
2018-09-22T10:05:23.472Z,1.00
2018-09-22T10:06:26.574Z,1.25
2018-09-22T10:07:29.831Z,1.00
2018-09-22T10:08:36.868Z,1.00
2018-09-22T10:09:41.199Z,1.00
2018-09-22T10:10:47.817Z,1.00
2018-09-22T10:11:51.411Z,1.00
2018-09-22T10:12:55.930Z,2.75
2018-09-22T10:14:01.900Z,1.00
2018-09-22T10:15:08.503Z,2.00
2018-09-22T10:16:12.893Z,1.25
2018-09-22T10:17:16.620Z,1.00
2018-09-22T10:18:25.513Z,2.00
2018-09-22T10:19:29.630Z,1.00
2018-09-22T10:20:39.221Z,2.00
2018-09-22T10:23:27.775Z,1.25
2018-09-22T10:24:31.757Z,1.00
2018-09-22T10:25:41.046Z,1.00
2018-09-22T10:27:00.633Z,1.00
2018-09-22T10:28:13.351Z,1.50
2018-09-22T10:43:44.556Z,1.00
2018-09-22T10:45:00.680Z,1.00
2018-09-22T10:47:33.255Z,0.50
2018-09-22T10:49:53.174Z,1.00
2018-09-22T10:51:02.536Z,1.00
2018-09-22T10:52:07.274Z,1.00
2018-09-22T10:53:12.469Z,0.00
2018-09-22T10:54:17.706Z,0.75
2018-09-22T10:55:25.098Z,1.00
2018-09-22T10:56:30.226Z,1.00
2018-09-22T10:57:33.384Z,0.75
2018-09-22T10:58:36.639Z,0.50
2018-09-22T10:59:40.840Z,1.00
2018-09-22T11:00:44.768Z,1.00
2018-09-22T11:01:49.566Z,1.00
2018-09-22T11:02:53.170Z,0.00
2018-09-22T11:03:56.539Z,1.00
2018-09-22T11:05:00.168Z,1.00
2018-09-22T11:06:03.487Z,0.75
2018-09-22T11:07:07.714Z,0.75
2018-09-22T11:08:14.121Z,0.75
2018-09-22T11:09:18.314Z,1.00
2018-09-22T11:10:22.213Z,0.50
2018-09-22T11:11:26.520Z,1.00
2018-09-22T11:12:29.760Z,0.00
2018-09-22T11:13:32.699Z,1.00
2018-09-22T11:14:36.749Z,0.75
2018-09-22T11:15:39.839Z,0.00
2018-09-22T11:16:43.450Z,0.00
2018-09-22T11:17:49.959Z,0.00
2018-09-22T11:18:53.100Z,1.00
2018-09-22T11:19:56.144Z,1.00
2018-09-22T11:21:00.542Z,0.75
2018-09-22T11:22:06.028Z,1.00
2018-09-22T11:23:09.154Z,0.75
2018-09-22T11:24:14.487Z,0.25
2018-09-22T11:26:26.222Z,1.00
2018-09-22T11:27:30.560Z,1.25
2018-09-22T11:28:34.895Z,1.00
2018-09-22T11:29:38.039Z,1.00
2018-09-22T11:30:41.121Z,0.50
2018-09-22T11:31:44.068Z,2.00
2018-09-22T11:32:48.453Z,1.00
2018-09-22T11:33:51.392Z,0.25
2018-09-22T11:34:56.399Z,0.25
2018-09-22T11:35:59.421Z,0.00
2018-09-22T11:37:02.494Z,0.75
2018-09-22T11:38:05.622Z,0.50
2018-09-22T11:39:08.925Z,0.00
2018-09-22T11:40:11.898Z,1.00
2018-09-22T11:42:25.267Z,0.00
2018-09-22T11:45:18.694Z,1.00
2018-09-22T11:50:40.958Z,1.00
2018-09-22T11:51:48.109Z,0.00
2018-09-22T11:52:52.748Z,1.00
2018-09-22T11:54:05.166Z,0.75
2018-09-22T11:55:10.772Z,1.00
2018-09-22T11:56:13.916Z,0.50
2018-09-22T11:57:17.336Z,1.00
2018-09-22T11:58:22.645Z,1.00
2018-09-22T11:59:32.942Z,0.75
2018-09-22T12:00:35.966Z,0.25
2018-09-22T12:01:39.291Z,2.50
2018-09-22T12:02:42.384Z,1.00
2018-09-22T12:03:45.348Z,0.00
2018-09-22T12:04:49.047Z,1.00
2018-09-22T12:05:53.589Z,1.00
2018-09-22T12:06:56.515Z,1.00
2018-09-22T12:08:00.094Z,1.00
2018-09-22T12:09:03.728Z,0.25
2018-09-22T12:10:06.767Z,1.50
2018-09-22T12:11:10.658Z,0.75
2018-09-22T12:12:14.483Z,1.00
2018-09-22T12:14:26.826Z,1.00
2018-09-22T12:15:31.910Z,1.00
2018-09-22T12:16:34.921Z,1.00
2018-09-22T12:17:38.008Z,1.00
2018-09-22T12:18:45.542Z,3.00
2018-09-22T12:19:48.761Z,1.00
2018-09-22T12:20:52.208Z,0.75
2018-09-22T12:21:56.543Z,0.25
2018-09-22T12:22:59.840Z,1.00
2018-09-22T12:24:03.129Z,0.50
2018-09-22T12:25:07.756Z,1.00
2018-09-22T12:26:11.366Z,0.25
2018-09-22T12:27:15.612Z,0.25
2018-09-22T12:28:18.863Z,1.00
2018-09-22T12:29:21.796Z,1.00
2018-09-22T12:30:25.220Z,1.00
2018-09-22T12:31:29.540Z,1.00
2018-09-22T12:32:32.504Z,1.00
2018-09-22T12:33:36.196Z,1.00
2018-09-22T12:34:39.278Z,1.00
2018-09-22T12:35:42.139Z,1.00
2018-09-22T12:36:45.344Z,1.00
2018-09-22T12:37:49.365Z,1.75
2018-09-22T12:39:00.603Z,1.00
2018-09-22T12:40:05.443Z,1.00
2018-09-22T12:41:15.479Z,1.00
2018-09-22T12:42:21.309Z,2.00
2018-09-22T12:43:29.839Z,0.75
2018-09-22T12:44:38.051Z,1.00
2018-09-22T12:45:45.726Z,1.00
2018-09-22T12:46:53.997Z,1.00
2018-09-22T12:48:01.926Z,0.25
2018-09-22T12:49:07.854Z,1.00
2018-09-22T12:51:24.177Z,1.00
2018-09-22T12:52:28.300Z,1.00
2018-09-22T12:53:33.229Z,1.00
2018-09-22T12:54:36.365Z,1.25
2018-09-22T12:55:50.489Z,1.00
2018-09-22T12:56:55.619Z,0.25
2018-09-22T12:58:00.952Z,2.00
2018-09-22T12:59:11.424Z,1.00
2018-09-22T13:00:21.525Z,1.00
2018-09-22T13:01:25.737Z,1.00
2018-09-22T13:04:27.686Z,1.00
2018-09-22T13:05:41.701Z,1.00
2018-09-22T13:06:45.137Z,0.75
2018-09-22T13:07:52.438Z,0.25
2018-09-22T13:08:58.195Z,0.25
2018-09-22T13:10:07.776Z,0.50
2018-09-22T13:12:27.852Z,0.25
2018-09-22T13:13:56.726Z,1.00
2018-09-22T13:15:04.495Z,1.00
2018-09-22T13:16:15.337Z,1.00
2018-09-22T13:18:41.543Z,1.00
2018-09-22T13:19:44.956Z,1.00
2018-09-22T13:20:48.082Z,1.00
2018-09-22T13:21:51.066Z,1.00
2018-09-22T13:22:56.463Z,1.00
2018-09-22T13:23:59.805Z,1.00
2018-09-22T13:25:02.747Z,2.00
2018-09-22T13:26:12.159Z,1.00
2018-09-22T13:27:15.898Z,1.00
2018-09-22T13:28:19.711Z,1.00
2018-09-22T13:29:23.858Z,1.00
2018-09-22T13:30:27.564Z,1.00
2018-09-22T13:31:32.072Z,1.75
2018-09-22T13:32:48.595Z,1.00
2018-09-22T13:34:01.651Z,1.00
2018-09-22T13:36:49.115Z,1.00
2018-09-22T13:39:37.067Z,1.50
2018-09-22T13:40:48.686Z,1.00
2018-09-22T13:42:07.431Z,1.00
2018-09-22T13:43:17.525Z,3.00
2018-09-22T13:45:31.132Z,1.00
2018-09-22T13:49:02.307Z,1.00
2018-09-22T13:50:14.564Z,1.00
2018-09-22T13:51:22.571Z,1.00
2018-09-22T13:52:32.754Z,1.00
2018-09-22T13:53:38.565Z,1.00
2018-09-22T13:54:45.515Z,1.00
2018-09-22T13:55:49.240Z,2.50
2018-09-22T13:56:55.524Z,1.00
2018-09-22T13:58:00.352Z,1.00
2018-09-22T13:59:09.812Z,1.00
2018-09-22T14:00:29.180Z,1.00
2018-09-22T14:03:19.358Z,1.00
2018-09-22T14:04:34.334Z,2.00
2018-09-22T14:05:38.901Z,2.50
2018-09-22T14:06:41.784Z,1.00
2018-09-22T14:07:45.793Z,1.00
2018-09-22T14:08:57.739Z,2.50
2018-09-22T14:10:01.505Z,1.00
2018-09-22T14:11:05.024Z,3.00
2018-09-22T14:12:13.956Z,1.00
2018-09-22T14:14:40.374Z,1.00
2018-09-22T14:17:22.794Z,1.00
2018-09-22T14:18:31.983Z,0.00
2018-09-22T14:22:27.314Z,1.00
2018-09-22T14:31:10.479Z,1.00
2018-09-22T14:32:23.447Z,1.00
2018-09-22T14:33:46.357Z,0.50
2018-09-22T14:36:12.803Z,1.00
2018-09-22T14:37:19.289Z,1.00
2018-09-22T14:38:24.240Z,3.00
2018-09-22T14:40:42.141Z,1.00
2018-09-22T14:41:49.615Z,1.50
2018-09-22T14:42:52.759Z,1.00
2018-09-22T14:43:55.642Z,1.00
2018-09-22T14:45:11.205Z,1.00
2018-09-22T14:46:25.175Z,1.00
2018-09-22T14:47:33.704Z,2.00
2018-09-22T14:48:37.743Z,1.00
2018-09-22T14:49:42.417Z,1.00
2018-09-22T14:50:45.958Z,3.00
2018-09-22T14:51:51.515Z,2.00
2018-09-22T14:52:59.001Z,3.50
2018-09-22T14:54:02.968Z,3.00
2018-09-22T14:55:07.258Z,3.00
2018-09-22T14:56:10.642Z,3.00
2018-09-22T14:57:14.964Z,3.50
2018-09-22T14:58:19.605Z,1.00
2018-09-22T14:59:22.477Z,1.50
2018-09-22T15:00:26.470Z,2.50
2018-09-22T15:01:30.518Z,3.00
2018-09-22T15:02:34.674Z,3.00
2018-09-22T15:03:38.541Z,2.00
2018-09-22T15:04:41.348Z,3.00
2018-09-22T15:05:44.757Z,3.00
2018-09-22T15:06:48.058Z,3.00
2018-09-22T15:07:52.674Z,2.50
2018-09-22T15:08:56.914Z,3.00
2018-09-22T15:10:00.436Z,3.00
2018-09-22T15:11:03.602Z,1.00
2018-09-22T15:12:07.224Z,3.00
2018-09-22T15:13:12.011Z,2.50
2018-09-22T15:14:17.881Z,2.00
2018-09-22T15:15:21.756Z,3.25
2018-09-22T15:16:24.960Z,3.00
2018-09-22T15:17:28.661Z,3.50
2018-09-22T15:18:33.449Z,3.00
2018-09-22T15:19:36.836Z,1.00
2018-09-22T15:21:49.005Z,3.00
2018-09-22T15:22:58.179Z,3.00
2018-09-22T15:24:06.521Z,1.50
2018-09-22T15:25:17.245Z,2.00
2018-09-22T15:26:33.353Z,1.50
2018-09-22T15:28:38.565Z,1.00
2018-09-22T15:29:44.845Z,2.50
2018-09-22T15:30:52.256Z,1.00
2018-09-22T15:32:05.815Z,3.00
2018-09-22T15:33:14.500Z,2.00
2018-09-22T15:34:22.124Z,2.50
2018-09-22T15:35:26.767Z,3.00
2018-09-22T15:39:17.270Z,3.00
2018-09-22T15:40:27.507Z,2.00
2018-09-22T15:41:35.785Z,3.00
2018-09-22T15:43:10.043Z,3.00
2018-09-22T15:44:15.900Z,3.50
2018-09-22T15:45:24.285Z,1.50
2018-09-22T15:46:34.886Z,3.00
2018-09-22T15:47:38.675Z,3.00
2018-09-22T15:48:45.753Z,3.50
2018-09-22T15:50:05.165Z,3.00
2018-09-22T15:51:09.538Z,3.00
2018-09-22T15:52:12.653Z,4.00
2018-09-22T15:53:17.402Z,3.75
2018-09-22T15:54:20.692Z,3.00
2018-09-22T15:55:24.292Z,2.00
2018-09-22T15:56:32.488Z,3.00
2018-09-22T15:57:38.094Z,3.75
2018-09-22T15:58:42.595Z,2.00
2018-09-22T15:59:45.444Z,3.00
2018-09-22T16:00:52.662Z,3.00
2018-09-22T16:02:00.357Z,4.00
2018-09-22T16:03:04.565Z,2.00
2018-09-22T16:04:07.485Z,2.00
2018-09-22T16:05:11.090Z,3.00
2018-09-22T16:06:24.709Z,3.00
2018-09-22T16:07:36.699Z,3.00
2018-09-22T16:08:51.257Z,2.50
2018-09-22T16:09:54.771Z,3.00
2018-09-22T16:11:08.472Z,1.00
2018-09-22T16:12:11.738Z,1.00
2018-09-22T16:13:15.745Z,3.00
2018-09-22T16:14:21.020Z,3.00
2018-09-22T16:15:25.050Z,3.75
2018-09-22T16:16:32.585Z,3.00
2018-09-22T16:17:37.388Z,1.50
2018-09-22T16:18:44.031Z,3.00
2018-09-22T16:19:47.508Z,3.75
2018-09-22T16:20:51.192Z,3.00
2018-09-22T16:21:54.277Z,1.00
2018-09-22T16:23:04.351Z,1.00
2018-09-22T16:24:09.902Z,3.00
2018-09-22T16:25:12.983Z,2.50
2018-09-22T16:26:19.494Z,3.75
2018-09-22T16:27:24.017Z,2.50
2018-09-22T16:28:27.262Z,4.00
2018-09-22T16:29:33.896Z,3.25
2018-09-22T16:30:36.962Z,4.00
2018-09-22T16:43:55.138Z,3.25
2018-09-22T16:44:59.541Z,5.00
2018-09-22T16:46:10.465Z,3.50
2018-09-22T16:50:37.357Z,2.00
2018-09-22T16:51:43.390Z,2.50
2018-09-22T16:53:07.176Z,2.00
2018-09-22T16:54:30.125Z,0.50
2018-09-22T17:01:44.623Z,0.00
2018-09-22T17:03:08.293Z,2.00
2018-09-22T17:04:13.591Z,3.00
2018-09-22T17:05:18.302Z,4.00
2018-09-22T17:06:23.452Z,1.00
2018-09-22T17:07:29.822Z,3.00
2018-09-22T17:08:45.364Z,3.00
2018-09-22T17:09:55.532Z,2.50
2018-09-22T17:11:19.000Z,3.00
2018-09-22T17:12:29.330Z,1.00
2018-09-22T17:16:32.411Z,3.00
2018-09-22T17:18:00.366Z,3.00
2018-09-22T17:19:28.357Z,0.00
2018-09-22T17:21:56.139Z,1.00
2018-09-22T17:27:16.035Z,3.00
2018-09-22T17:28:26.973Z,3.00
2018-09-22T17:29:38.140Z,5.00
2018-09-22T17:30:52.549Z,3.00
2018-09-22T17:32:23.487Z,6.00
2018-09-22T17:33:35.807Z,3.00
2018-09-22T17:34:39.489Z,3.00
2018-09-22T17:35:48.284Z,3.00
2018-09-22T17:39:23.653Z,1.00
2018-09-22T17:40:28.382Z,2.00
2018-09-22T17:41:34.367Z,3.00
2018-09-22T17:42:49.811Z,4.75
2018-09-22T17:43:56.530Z,3.00